EXS195 LERS-EGNX
Flight info
| Callsign | EXS195 |
|---|---|
| Flight time | 1h 54m |
| Altitude | 36000 |
| Route | NATPI DCT EVNAM DCT TUPAR UN861 DIKRO UM184 HEMEL |
| Aircraft | B738/M-SDE2E3FGHIRWXY/LB1 |
Departure
| Time | 2026-04-25 20:57 |
|---|---|
| Airport | Reus Airport (LERS) |
Arrival
| Time | 2026-04-25 22:51 |
|---|---|
| Airport | East Midlands Airport (EGNX) |
| Time | Latitude | Longitude | Altitude | Speed | Heading |
|---|---|---|---|---|---|
| 2026-04-25 20:35 | 41.14729 | 1.15803 | 238 ft | 0 kts | 338° |
| 2026-04-25 20:48 | 41.14717 | 1.15810 | 238 ft | 2 kts | 338° |
| 2026-04-25 20:48 | 41.14702 | 1.15818 | 238 ft | 2 kts | 338° |
| 2026-04-25 20:48 | 41.14686 | 1.15826 | 238 ft | 2 kts | 341° |
| 2026-04-25 20:49 | 41.14672 | 1.15830 | 238 ft | 2 kts | 6° |
| 2026-04-25 20:49 | 41.14658 | 1.15826 | 238 ft | 2 kts | 38° |
| 2026-04-25 20:49 | 41.14651 | 1.15817 | 238 ft | 1 kts | 66° |
| 2026-04-25 20:49 | 41.14650 | 1.15814 | 238 ft | 0 kts | 69° |
| 2026-04-25 20:52 | 41.14674 | 1.15889 | 238 ft | 11 kts | 67° |
| 2026-04-25 20:52 | 41.14703 | 1.15985 | 238 ft | 12 kts | 68° |
| 2026-04-25 20:53 | 41.14736 | 1.16096 | 238 ft | 14 kts | 68° |
| 2026-04-25 20:53 | 41.14774 | 1.16227 | 239 ft | 17 kts | 69° |
| 2026-04-25 20:53 | 41.14825 | 1.16404 | 239 ft | 23 kts | 69° |
| 2026-04-25 20:53 | 41.14881 | 1.16600 | 239 ft | 23 kts | 69° |
| 2026-04-25 20:54 | 41.14936 | 1.16791 | 239 ft | 22 kts | 68° |
| 2026-04-25 20:54 | 41.14992 | 1.16977 | 239 ft | 21 kts | 68° |
| 2026-04-25 20:54 | 41.15045 | 1.17156 | 240 ft | 21 kts | 68° |
| 2026-04-25 20:54 | 41.15097 | 1.17329 | 240 ft | 20 kts | 68° |
| 2026-04-25 20:55 | 41.15147 | 1.17499 | 240 ft | 19 kts | 69° |
| 2026-04-25 20:55 | 41.15194 | 1.17664 | 240 ft | 19 kts | 70° |
| 2026-04-25 20:55 | 41.15239 | 1.17823 | 241 ft | 18 kts | 69° |
| 2026-04-25 20:55 | 41.15285 | 1.17977 | 241 ft | 17 kts | 69° |
| 2026-04-25 20:56 | 41.15326 | 1.18122 | 241 ft | 16 kts | 69° |
| 2026-04-25 20:56 | 41.15313 | 1.18239 | 241 ft | 12 kts | 149° |
| 2026-04-25 20:56 | 41.15233 | 1.18281 | 242 ft | 12 kts | 171° |
| 2026-04-25 20:56 | 41.15178 | 1.18213 | 242 ft | 13 kts | 248° |
| 2026-04-25 20:57 | 41.15063 | 1.17821 | 243 ft | 86 kts | 249° |
| 2026-04-25 20:57 | 41.14747 | 1.16763 | 249 ft | 157 kts | 247° |
| 2026-04-25 20:57 | 41.14292 | 1.15354 | 903 ft | 168 kts | 242° |
| 2026-04-25 20:57 | 41.13676 | 1.13954 | 1639 ft | 189 kts | 238° |
| 2026-04-25 20:58 | 41.12940 | 1.12334 | 2014 ft | 215 kts | 238° |
| 2026-04-25 20:58 | 41.12153 | 1.10595 | 2388 ft | 223 kts | 238° |
| 2026-04-25 20:58 | 41.11354 | 1.08824 | 2741 ft | 224 kts | 237° |
| 2026-04-25 20:58 | 41.10551 | 1.07040 | 3118 ft | 227 kts | 237° |
| 2026-04-25 20:59 | 41.09733 | 1.05219 | 3555 ft | 233 kts | 237° |
| 2026-04-25 20:59 | 41.08882 | 1.03325 | 4023 ft | 247 kts | 238° |
| 2026-04-25 20:59 | 41.07974 | 1.01303 | 4514 ft | 263 kts | 238° |
| 2026-04-25 20:59 | 41.07011 | 0.99157 | 4998 ft | 277 kts | 238° |
| 2026-04-25 21:00 | 41.06032 | 0.96977 | 5443 ft | 279 kts | 238° |
| 2026-04-25 21:00 | 41.05705 | 0.96227 | 5592 ft | 278 kts | 242° |
| 2026-04-25 21:00 | 41.06781 | 0.90190 | 6898 ft | 275 kts | 322° |
| 2026-04-25 21:01 | 41.08462 | 0.89011 | 7459 ft | 276 kts | 346° |
| 2026-04-25 21:01 | 41.10381 | 0.88808 | 8168 ft | 279 kts | 6° |
| 2026-04-25 21:01 | 41.12309 | 0.89141 | 8974 ft | 281 kts | 9° |
| 2026-04-25 21:01 | 41.14251 | 0.89559 | 9765 ft | 284 kts | 10° |
| 2026-04-25 21:02 | 41.16213 | 0.89998 | 10460 ft | 290 kts | 10° |
| 2026-04-25 21:02 | 41.18277 | 0.90460 | 10693 ft | 313 kts | 10° |
| 2026-04-25 21:02 | 41.20499 | 0.90950 | 10862 ft | 335 kts | 10° |
| 2026-04-25 21:02 | 41.22875 | 0.91467 | 11036 ft | 356 kts | 9° |
| 2026-04-25 21:03 | 41.25380 | 0.92006 | 11302 ft | 370 kts | 9° |
| 2026-04-25 21:03 | 41.27933 | 0.92550 | 11635 ft | 371 kts | 9° |
| 2026-04-25 21:03 | 41.29621 | 0.92908 | 11941 ft | 371 kts | 9° |
| 2026-04-25 21:03 | 41.33068 | 0.93635 | 12627 ft | 378 kts | 9° |
| 2026-04-25 21:04 | 41.34798 | 0.93999 | 12959 ft | 382 kts | 9° |
| 2026-04-25 21:04 | 41.37439 | 0.94556 | 13481 ft | 387 kts | 9° |
| 2026-04-25 21:04 | 41.40114 | 0.95119 | 14001 ft | 390 kts | 9° |
| 2026-04-25 21:04 | 41.42811 | 0.95688 | 14472 ft | 394 kts | 9° |
| 2026-04-25 21:05 | 41.45532 | 0.96262 | 14957 ft | 397 kts | 9° |
| 2026-04-25 21:05 | 41.48267 | 0.96840 | 15433 ft | 399 kts | 9° |
| 2026-04-25 21:05 | 41.50978 | 0.97413 | 15917 ft | 401 kts | 9° |
| 2026-04-25 21:05 | 41.53742 | 0.97998 | 16414 ft | 403 kts | 9° |
| 2026-04-25 21:06 | 41.56520 | 0.98586 | 16922 ft | 406 kts | 9° |
| 2026-04-25 21:06 | 41.59318 | 0.99179 | 17437 ft | 409 kts | 9° |
| 2026-04-25 21:06 | 41.62135 | 0.99777 | 17963 ft | 411 kts | 9° |
| 2026-04-25 21:06 | 41.64048 | 1.00184 | 18320 ft | 413 kts | 9° |
| 2026-04-25 21:07 | 41.67820 | 1.00985 | 18941 ft | 416 kts | 9° |
| 2026-04-25 21:07 | 41.70686 | 1.01595 | 19423 ft | 418 kts | 9° |
| 2026-04-25 21:07 | 41.73566 | 1.02208 | 19902 ft | 420 kts | 9° |
| 2026-04-25 21:07 | 41.76457 | 1.02824 | 20387 ft | 421 kts | 9° |
| 2026-04-25 21:08 | 41.79362 | 1.03444 | 20878 ft | 423 kts | 9° |
| 2026-04-25 21:08 | 41.82283 | 1.04067 | 21179 ft | 430 kts | 9° |
| 2026-04-25 21:08 | 41.85262 | 1.04704 | 21469 ft | 435 kts | 9° |
| 2026-04-25 21:08 | 41.88269 | 1.05347 | 21828 ft | 438 kts | 9° |
| 2026-04-25 21:09 | 41.94308 | 1.06641 | 22559 ft | 444 kts | 8° |
| 2026-04-25 21:09 | 41.97367 | 1.07297 | 22934 ft | 447 kts | 8° |
| 2026-04-25 21:09 | 42.00444 | 1.07957 | 23315 ft | 449 kts | 8° |
| 2026-04-25 21:10 | 42.03533 | 1.08622 | 23692 ft | 451 kts | 8° |
| 2026-04-25 21:10 | 42.06639 | 1.09290 | 24017 ft | 452 kts | 8° |
| 2026-04-25 21:10 | 42.09748 | 1.09960 | 24368 ft | 454 kts | 8° |
| 2026-04-25 21:10 | 42.12877 | 1.10634 | 24691 ft | 455 kts | 8° |
| 2026-04-25 21:11 | 42.16008 | 1.11310 | 25025 ft | 456 kts | 8° |
| 2026-04-25 21:11 | 42.19151 | 1.11989 | 25360 ft | 457 kts | 8° |
| 2026-04-25 21:11 | 42.22292 | 1.12668 | 25698 ft | 458 kts | 8° |
| 2026-04-25 21:11 | 42.25400 | 1.13341 | 26044 ft | 458 kts | 8° |
| 2026-04-25 21:12 | 42.28551 | 1.14024 | 26391 ft | 459 kts | 8° |
| 2026-04-25 21:12 | 42.31705 | 1.14709 | 26737 ft | 459 kts | 8° |
| 2026-04-25 21:12 | 42.34859 | 1.15393 | 27100 ft | 459 kts | 8° |
| 2026-04-25 21:12 | 42.36990 | 1.15856 | 27340 ft | 459 kts | 8° |
| 2026-04-25 21:13 | 42.41165 | 1.16765 | 27821 ft | 459 kts | 8° |
| 2026-04-25 21:13 | 42.44318 | 1.17451 | 28190 ft | 459 kts | 8° |
| 2026-04-25 21:13 | 42.47467 | 1.18138 | 28559 ft | 458 kts | 8° |
| 2026-04-25 21:13 | 42.50626 | 1.18828 | 28936 ft | 458 kts | 8° |
| 2026-04-25 21:14 | 42.53771 | 1.19515 | 29317 ft | 457 kts | 8° |
| 2026-04-25 21:14 | 42.56870 | 1.20192 | 29706 ft | 456 kts | 8° |
| 2026-04-25 21:14 | 42.60041 | 1.20858 | 30101 ft | 455 kts | 5° |
| 2026-04-25 21:14 | 42.63195 | 1.20946 | 30444 ft | 452 kts | 354° |
| 2026-04-25 21:15 | 42.66246 | 1.20311 | 30790 ft | 449 kts | 345° |
| 2026-04-25 21:15 | 42.69225 | 1.19054 | 31133 ft | 447 kts | 340° |
| 2026-04-25 21:15 | 42.72154 | 1.17664 | 31473 ft | 445 kts | 339° |
| 2026-04-25 21:15 | 42.75073 | 1.16261 | 31823 ft | 444 kts | 339° |
| 2026-04-25 21:16 | 42.77981 | 1.14867 | 32184 ft | 442 kts | 339° |
| 2026-04-25 21:16 | 42.80882 | 1.13488 | 32543 ft | 440 kts | 339° |
| 2026-04-25 21:16 | 42.83771 | 1.12125 | 32896 ft | 438 kts | 339° |
| 2026-04-25 21:16 | 42.86644 | 1.10778 | 33258 ft | 435 kts | 339° |
| 2026-04-25 21:17 | 42.89505 | 1.09440 | 33636 ft | 433 kts | 339° |
| 2026-04-25 21:17 | 42.92348 | 1.08113 | 34011 ft | 430 kts | 339° |
| 2026-04-25 21:17 | 42.95172 | 1.06795 | 34364 ft | 428 kts | 339° |
| 2026-04-25 21:17 | 42.97982 | 1.05482 | 34695 ft | 425 kts | 339° |
| 2026-04-25 21:18 | 43.00736 | 1.04195 | 35019 ft | 422 kts | 339° |
| 2026-04-25 21:18 | 43.03506 | 1.02898 | 35359 ft | 419 kts | 339° |
| 2026-04-25 21:18 | 43.06251 | 1.01611 | 35689 ft | 415 kts | 339° |
| 2026-04-25 21:18 | 43.08970 | 1.00336 | 36035 ft | 412 kts | 338° |
| 2026-04-25 21:19 | 43.11678 | 0.99064 | 36210 ft | 413 kts | 338° |
| 2026-04-25 21:19 | 43.14408 | 0.97778 | 36204 ft | 417 kts | 338° |
| 2026-04-25 21:19 | 43.19950 | 0.95164 | 36208 ft | 425 kts | 338° |
| 2026-04-25 21:20 | 43.24628 | 0.92957 | 36209 ft | 431 kts | 338° |
| 2026-04-25 21:20 | 43.31328 | 0.89789 | 36202 ft | 440 kts | 338° |
| 2026-04-25 21:21 | 43.37156 | 0.87029 | 36198 ft | 446 kts | 338° |
| 2026-04-25 21:21 | 43.43043 | 0.84236 | 36197 ft | 448 kts | 338° |
| 2026-04-25 21:22 | 43.48949 | 0.81428 | 36187 ft | 449 kts | 338° |
| 2026-04-25 21:22 | 43.54824 | 0.78629 | 36190 ft | 449 kts | 338° |
| 2026-04-25 21:23 | 43.60717 | 0.75815 | 36187 ft | 448 kts | 338° |
| 2026-04-25 21:23 | 43.66598 | 0.73001 | 36182 ft | 447 kts | 338° |
| 2026-04-25 21:24 | 43.72466 | 0.70187 | 36188 ft | 445 kts | 338° |
| 2026-04-25 21:24 | 43.78314 | 0.67376 | 36190 ft | 444 kts | 338° |
| 2026-04-25 21:25 | 43.84151 | 0.64565 | 36186 ft | 444 kts | 338° |
| 2026-04-25 21:25 | 43.89989 | 0.61747 | 36190 ft | 444 kts | 338° |
| 2026-04-25 21:26 | 43.95836 | 0.58919 | 36191 ft | 445 kts | 338° |
| 2026-04-25 21:26 | 44.01693 | 0.56081 | 36191 ft | 447 kts | 338° |
| 2026-04-25 21:27 | 44.07540 | 0.53241 | 36193 ft | 449 kts | 338° |
| 2026-04-25 21:27 | 44.13454 | 0.50363 | 36196 ft | 451 kts | 338° |
| 2026-04-25 21:28 | 44.19389 | 0.47468 | 36187 ft | 452 kts | 338° |
| 2026-04-25 21:28 | 44.25327 | 0.44567 | 36187 ft | 452 kts | 338° |
| 2026-04-25 21:29 | 44.31222 | 0.41680 | 36185 ft | 452 kts | 338° |
| 2026-04-25 21:29 | 44.37150 | 0.38771 | 36185 ft | 451 kts | 338° |
| 2026-04-25 21:30 | 44.43077 | 0.35856 | 36189 ft | 451 kts | 338° |
| 2026-04-25 21:30 | 44.48038 | 0.33411 | 36190 ft | 450 kts | 338° |
| 2026-04-25 21:31 | 44.54899 | 0.30023 | 36185 ft | 449 kts | 338° |
| 2026-04-25 21:31 | 44.60797 | 0.27102 | 36190 ft | 449 kts | 338° |
| 2026-04-25 21:32 | 44.66686 | 0.24180 | 36189 ft | 448 kts | 338° |
| 2026-04-25 21:32 | 44.72561 | 0.21259 | 36186 ft | 448 kts | 338° |
| 2026-04-25 21:33 | 44.78434 | 0.18332 | 36180 ft | 447 kts | 338° |
| 2026-04-25 21:33 | 44.84305 | 0.15400 | 36187 ft | 447 kts | 338° |
| 2026-04-25 21:34 | 44.90138 | 0.12481 | 36187 ft | 447 kts | 338° |
| 2026-04-25 21:34 | 44.96000 | 0.09541 | 36183 ft | 447 kts | 338° |
| 2026-04-25 21:35 | 45.01863 | 0.06594 | 36185 ft | 447 kts | 338° |
| 2026-04-25 21:35 | 45.07722 | 0.03643 | 36188 ft | 447 kts | 338° |
| 2026-04-25 21:36 | 45.13586 | 0.00683 | 36186 ft | 447 kts | 338° |
| 2026-04-25 21:36 | 45.19437 | -0.02277 | 36182 ft | 447 kts | 338° |
| 2026-04-25 21:37 | 45.24305 | -0.04745 | 36184 ft | 446 kts | 338° |
| 2026-04-25 21:37 | 45.31143 | -0.08219 | 36183 ft | 446 kts | 338° |
| 2026-04-25 21:38 | 45.36990 | -0.11196 | 36185 ft | 446 kts | 338° |
| 2026-04-25 21:38 | 45.42824 | -0.14174 | 36186 ft | 445 kts | 338° |
| 2026-04-25 21:39 | 45.48661 | -0.17160 | 36186 ft | 445 kts | 338° |
| 2026-04-25 21:39 | 45.54446 | -0.20125 | 36186 ft | 445 kts | 338° |
| 2026-04-25 21:40 | 45.60264 | -0.23114 | 36183 ft | 444 kts | 338° |
| 2026-04-25 21:40 | 45.66076 | -0.26107 | 36186 ft | 443 kts | 338° |
| 2026-04-25 21:41 | 45.71880 | -0.29101 | 36184 ft | 443 kts | 338° |
| 2026-04-25 21:41 | 45.77678 | -0.32100 | 36185 ft | 442 kts | 338° |
| 2026-04-25 21:42 | 45.83473 | -0.35104 | 36181 ft | 442 kts | 338° |
| 2026-04-25 21:42 | 45.89258 | -0.38109 | 36183 ft | 442 kts | 338° |
| 2026-04-25 21:43 | 45.95009 | -0.41103 | 36182 ft | 442 kts | 338° |
| 2026-04-25 21:43 | 46.00786 | -0.44118 | 36184 ft | 442 kts | 338° |
| 2026-04-25 21:44 | 46.06567 | -0.47141 | 36179 ft | 441 kts | 338° |
| 2026-04-25 21:45 | 46.15224 | -0.51681 | 36183 ft | 441 kts | 338° |
| 2026-04-25 21:45 | 46.20995 | -0.54716 | 36178 ft | 441 kts | 338° |
| 2026-04-25 21:46 | 46.26755 | -0.57752 | 36169 ft | 440 kts | 338° |
| 2026-04-25 21:46 | 46.32471 | -0.60772 | 36173 ft | 440 kts | 338° |
| 2026-04-25 21:47 | 46.38223 | -0.63817 | 36171 ft | 440 kts | 338° |
| 2026-04-25 21:47 | 46.44046 | -0.66558 | 36163 ft | 441 kts | 348° |
| 2026-04-25 21:48 | 46.50138 | -0.67665 | 36158 ft | 442 kts | 352° |
| 2026-04-25 21:48 | 46.56263 | -0.68597 | 36171 ft | 442 kts | 352° |
| 2026-04-25 21:49 | 46.61349 | -0.69405 | 36173 ft | 441 kts | 352° |
| 2026-04-25 21:49 | 46.67449 | -0.70416 | 36160 ft | 441 kts | 352° |
| 2026-04-25 21:50 | 46.73546 | -0.71445 | 36167 ft | 441 kts | 352° |
| 2026-04-25 21:50 | 46.79634 | -0.72477 | 36171 ft | 440 kts | 352° |
| 2026-04-25 21:51 | 46.85722 | -0.73510 | 36170 ft | 440 kts | 352° |
| 2026-04-25 21:51 | 46.91800 | -0.74543 | 36176 ft | 440 kts | 352° |
| 2026-04-25 21:52 | 46.97875 | -0.75578 | 36170 ft | 439 kts | 352° |
| 2026-04-25 21:52 | 47.03951 | -0.76615 | 36175 ft | 439 kts | 352° |
| 2026-04-25 21:53 | 47.10022 | -0.77654 | 36179 ft | 439 kts | 352° |
| 2026-04-25 21:53 | 47.16090 | -0.78695 | 36182 ft | 439 kts | 352° |
| 2026-04-25 21:54 | 47.22119 | -0.79731 | 36174 ft | 438 kts | 352° |
| 2026-04-25 21:54 | 47.28179 | -0.80775 | 36177 ft | 438 kts | 352° |
| 2026-04-25 21:55 | 47.34228 | -0.81820 | 36179 ft | 438 kts | 352° |
| 2026-04-25 21:55 | 47.40279 | -0.82868 | 36173 ft | 437 kts | 352° |
| 2026-04-25 21:56 | 47.46322 | -0.83916 | 36180 ft | 437 kts | 352° |
| 2026-04-25 21:56 | 47.52329 | -0.84961 | 36179 ft | 437 kts | 352° |
| 2026-04-25 21:57 | 47.58377 | -0.85875 | 36178 ft | 437 kts | 353° |
| 2026-04-25 21:57 | 47.64441 | -0.86574 | 36176 ft | 436 kts | 354° |
| 2026-04-25 21:58 | 47.70495 | -0.87265 | 36182 ft | 436 kts | 354° |
| 2026-04-25 21:58 | 47.76543 | -0.87987 | 36181 ft | 436 kts | 353° |
| 2026-04-25 21:59 | 47.82589 | -0.88725 | 36182 ft | 435 kts | 353° |
| 2026-04-25 21:59 | 47.88621 | -0.89467 | 36186 ft | 434 kts | 353° |
| 2026-04-25 22:00 | 47.97651 | -0.90582 | 36184 ft | 434 kts | 353° |
| 2026-04-25 22:00 | 48.03506 | -0.92480 | 36187 ft | 430 kts | 342° |
| 2026-04-25 22:01 | 48.09186 | -0.95098 | 36192 ft | 430 kts | 341° |
| 2026-04-25 22:01 | 48.13968 | -0.97361 | 36188 ft | 429 kts | 341° |
| 2026-04-25 22:02 | 48.20586 | -1.00514 | 36192 ft | 429 kts | 341° |
| 2026-04-25 22:02 | 48.26291 | -1.03234 | 36193 ft | 429 kts | 341° |
| 2026-04-25 22:03 | 48.31948 | -1.05927 | 36201 ft | 429 kts | 341° |
| 2026-04-25 22:03 | 48.37649 | -1.08634 | 36201 ft | 429 kts | 341° |
| 2026-04-25 22:04 | 48.43349 | -1.11333 | 36203 ft | 429 kts | 341° |
| 2026-04-25 22:04 | 48.49054 | -1.14028 | 36203 ft | 430 kts | 341° |
| 2026-04-25 22:05 | 48.54800 | -1.16602 | 36202 ft | 433 kts | 348° |
| 2026-04-25 22:05 | 48.57809 | -1.17018 | 36209 ft | 437 kts | 359° |
| 2026-04-25 22:05 | 48.60841 | -1.16826 | 36218 ft | 437 kts | 0° |
| 2026-04-25 22:06 | 48.66942 | -1.16368 | 36208 ft | 439 kts | 360° |
| 2026-04-25 22:06 | 48.73046 | -1.15965 | 36209 ft | 439 kts | 359° |
| 2026-04-25 22:07 | 48.78129 | -1.15668 | 36215 ft | 440 kts | 359° |
| 2026-04-25 22:07 | 48.85289 | -1.15267 | 36216 ft | 440 kts | 359° |
| 2026-04-25 22:08 | 48.91420 | -1.14925 | 36218 ft | 441 kts | 359° |
| 2026-04-25 22:08 | 48.97517 | -1.14582 | 36223 ft | 441 kts | 359° |
| 2026-04-25 22:09 | 49.03665 | -1.14235 | 36223 ft | 442 kts | 359° |
| 2026-04-25 22:09 | 49.09817 | -1.13887 | 36226 ft | 443 kts | 359° |
| 2026-04-25 22:10 | 49.15976 | -1.13538 | 36229 ft | 443 kts | 359° |
| 2026-04-25 22:10 | 49.22139 | -1.13187 | 36228 ft | 443 kts | 359° |
| 2026-04-25 22:11 | 49.28305 | -1.12835 | 36226 ft | 444 kts | 359° |
| 2026-04-25 22:11 | 49.34481 | -1.12482 | 36228 ft | 444 kts | 359° |
| 2026-04-25 22:12 | 49.40663 | -1.12128 | 36228 ft | 444 kts | 359° |
| 2026-04-25 22:12 | 49.45804 | -1.11832 | 36227 ft | 445 kts | 359° |
| 2026-04-25 22:13 | 49.52999 | -1.11418 | 36226 ft | 445 kts | 359° |
| 2026-04-25 22:13 | 49.59200 | -1.11055 | 36223 ft | 446 kts | 360° |
| 2026-04-25 22:14 | 49.65399 | -1.10255 | 36224 ft | 447 kts | 2° |
| 2026-04-25 22:14 | 49.71596 | -1.09295 | 36223 ft | 447 kts | 2° |
| 2026-04-25 22:15 | 49.77799 | -1.08417 | 36232 ft | 448 kts | 2° |
| 2026-04-25 22:16 | 49.87082 | -1.07156 | 36232 ft | 448 kts | 2° |
| 2026-04-25 22:16 | 49.93298 | -1.06314 | 36238 ft | 448 kts | 2° |
| 2026-04-25 22:17 | 49.99525 | -1.05465 | 36239 ft | 449 kts | 2° |
| 2026-04-25 22:17 | 50.05747 | -1.04601 | 36241 ft | 449 kts | 2° |
| 2026-04-25 22:18 | 50.11991 | -1.03722 | 36236 ft | 449 kts | 2° |
| 2026-04-25 22:18 | 50.18226 | -1.02844 | 36238 ft | 450 kts | 2° |
| 2026-04-25 22:19 | 50.24418 | -1.01971 | 36239 ft | 450 kts | 2° |
| 2026-04-25 22:19 | 50.30663 | -1.01088 | 36244 ft | 450 kts | 2° |
| 2026-04-25 22:20 | 50.36902 | -1.00208 | 36245 ft | 450 kts | 2° |
| 2026-04-25 22:20 | 50.43145 | -0.99336 | 36250 ft | 450 kts | 2° |
| 2026-04-25 22:21 | 50.49396 | -0.98462 | 36244 ft | 451 kts | 2° |
| 2026-04-25 22:21 | 50.55639 | -0.97584 | 36250 ft | 451 kts | 2° |
| 2026-04-25 22:22 | 50.61916 | -0.96700 | 35908 ft | 454 kts | 2° |
| 2026-04-25 22:22 | 50.65052 | -0.96257 | 35663 ft | 451 kts | 2° |
| 2026-04-25 22:22 | 50.68167 | -0.95815 | 35415 ft | 449 kts | 2° |
| 2026-04-25 22:22 | 50.71283 | -0.95373 | 35061 ft | 449 kts | 2° |
| 2026-04-25 22:23 | 50.74397 | -0.94920 | 34697 ft | 449 kts | 2° |
| 2026-04-25 22:23 | 50.77516 | -0.94461 | 34344 ft | 450 kts | 2° |
| 2026-04-25 22:23 | 50.80633 | -0.93988 | 33950 ft | 450 kts | 4° |
| 2026-04-25 22:23 | 50.83656 | -0.93100 | 33517 ft | 446 kts | 13° |
| 2026-04-25 22:24 | 50.86600 | -0.91643 | 33158 ft | 440 kts | 15° |
| 2026-04-25 22:24 | 50.89474 | -0.90120 | 32823 ft | 440 kts | 15° |
| 2026-04-25 22:24 | 50.92382 | -0.88558 | 32493 ft | 442 kts | 15° |
| 2026-04-25 22:24 | 50.95295 | -0.87000 | 32164 ft | 443 kts | 15° |
| 2026-04-25 22:25 | 50.98223 | -0.85448 | 31823 ft | 444 kts | 15° |
| 2026-04-25 22:25 | 51.01158 | -0.83906 | 31495 ft | 444 kts | 14° |
| 2026-04-25 22:25 | 51.04098 | -0.82371 | 31274 ft | 445 kts | 14° |
| 2026-04-25 22:26 | 51.09996 | -0.79300 | 31243 ft | 446 kts | 14° |
| 2026-04-25 22:26 | 51.15886 | -0.76228 | 31231 ft | 446 kts | 14° |
| 2026-04-25 22:26 | 51.18868 | -0.74672 | 30948 ft | 456 kts | 14° |
| 2026-04-25 22:27 | 51.21876 | -0.73101 | 30399 ft | 462 kts | 14° |
| 2026-04-25 22:27 | 51.24945 | -0.71494 | 29814 ft | 466 kts | 15° |
| 2026-04-25 22:27 | 51.28027 | -0.69874 | 29216 ft | 466 kts | 15° |
| 2026-04-25 22:27 | 51.31102 | -0.68254 | 28714 ft | 464 kts | 15° |
| 2026-04-25 22:28 | 51.34168 | -0.66636 | 28238 ft | 463 kts | 15° |
| 2026-04-25 22:28 | 51.37219 | -0.65025 | 27767 ft | 462 kts | 15° |
| 2026-04-25 22:28 | 51.40271 | -0.63413 | 27300 ft | 460 kts | 15° |
| 2026-04-25 22:28 | 51.43310 | -0.61805 | 26837 ft | 459 kts | 15° |
| 2026-04-25 22:29 | 51.46327 | -0.60207 | 26389 ft | 456 kts | 15° |
| 2026-04-25 22:29 | 51.49339 | -0.58610 | 25948 ft | 453 kts | 15° |
| 2026-04-25 22:29 | 51.52320 | -0.57026 | 25531 ft | 450 kts | 15° |
| 2026-04-25 22:30 | 51.58215 | -0.53888 | 24722 ft | 443 kts | 15° |
| 2026-04-25 22:30 | 51.61136 | -0.52331 | 24326 ft | 440 kts | 15° |
| 2026-04-25 22:30 | 51.64034 | -0.50784 | 23933 ft | 437 kts | 15° |
| 2026-04-25 22:30 | 51.65943 | -0.49764 | 23653 ft | 436 kts | 15° |
| 2026-04-25 22:31 | 51.69780 | -0.47711 | 23082 ft | 433 kts | 15° |
| 2026-04-25 22:31 | 51.72630 | -0.46184 | 22634 ft | 430 kts | 15° |
| 2026-04-25 22:31 | 51.75429 | -0.44680 | 22315 ft | 417 kts | 15° |
| 2026-04-25 22:31 | 51.78180 | -0.43400 | 22254 ft | 407 kts | 5° |
| 2026-04-25 22:32 | 51.80974 | -0.43441 | 22278 ft | 399 kts | 348° |
| 2026-04-25 22:32 | 51.83536 | -0.44676 | 22258 ft | 381 kts | 332° |
| 2026-04-25 22:32 | 51.85813 | -0.46715 | 22268 ft | 370 kts | 327° |
| 2026-04-25 22:32 | 51.88001 | -0.48869 | 22255 ft | 363 kts | 326° |
| 2026-04-25 22:33 | 51.90127 | -0.51007 | 22255 ft | 356 kts | 326° |
| 2026-04-25 22:33 | 51.92231 | -0.53121 | 21879 ft | 358 kts | 326° |
| 2026-04-25 22:33 | 51.94348 | -0.55232 | 21255 ft | 354 kts | 327° |
| 2026-04-25 22:33 | 51.96422 | -0.57285 | 20772 ft | 346 kts | 327° |
| 2026-04-25 22:34 | 51.98464 | -0.59297 | 20357 ft | 341 kts | 327° |
| 2026-04-25 22:34 | 51.99803 | -0.60614 | 20077 ft | 338 kts | 327° |
| 2026-04-25 22:34 | 52.01803 | -0.62580 | 19660 ft | 334 kts | 327° |
| 2026-04-25 22:34 | 52.03776 | -0.64521 | 19248 ft | 330 kts | 328° |
| 2026-04-25 22:35 | 52.05735 | -0.66447 | 18845 ft | 327 kts | 328° |
| 2026-04-25 22:35 | 52.07675 | -0.68358 | 18437 ft | 326 kts | 328° |
| 2026-04-25 22:35 | 52.09616 | -0.70270 | 17983 ft | 327 kts | 328° |
| 2026-04-25 22:35 | 52.11572 | -0.72200 | 17544 ft | 331 kts | 328° |
| 2026-04-25 22:36 | 52.13562 | -0.74165 | 17103 ft | 339 kts | 328° |
| 2026-04-25 22:36 | 52.15602 | -0.76183 | 16683 ft | 346 kts | 328° |
| 2026-04-25 22:36 | 52.17661 | -0.78220 | 16275 ft | 347 kts | 328° |
| 2026-04-25 22:36 | 52.19729 | -0.80267 | 15884 ft | 347 kts | 328° |
| 2026-04-25 22:37 | 52.21794 | -0.82314 | 15487 ft | 347 kts | 328° |
| 2026-04-25 22:37 | 52.23862 | -0.84366 | 14993 ft | 346 kts | 328° |
| 2026-04-25 22:37 | 52.25898 | -0.86386 | 14468 ft | 339 kts | 328° |
| 2026-04-25 22:37 | 52.27897 | -0.88363 | 13891 ft | 334 kts | 328° |
| 2026-04-25 22:38 | 52.29868 | -0.90314 | 13293 ft | 329 kts | 328° |
| 2026-04-25 22:38 | 52.31805 | -0.92234 | 12695 ft | 324 kts | 328° |
| 2026-04-25 22:38 | 52.33724 | -0.94138 | 12123 ft | 320 kts | 328° |
| 2026-04-25 22:38 | 52.35611 | -0.96012 | 11571 ft | 315 kts | 328° |
| 2026-04-25 22:39 | 52.37450 | -0.97841 | 11038 ft | 311 kts | 328° |
| 2026-04-25 22:39 | 52.39294 | -0.99656 | 10537 ft | 306 kts | 332° |
| 2026-04-25 22:39 | 52.41269 | -1.00661 | 10315 ft | 292 kts | 354° |
| 2026-04-25 22:39 | 52.43244 | -1.00465 | 10034 ft | 281 kts | 12° |
| 2026-04-25 22:40 | 52.45124 | -0.99675 | 9787 ft | 277 kts | 15° |
| 2026-04-25 22:40 | 52.46977 | -0.98827 | 9527 ft | 277 kts | 15° |
| 2026-04-25 22:40 | 52.48843 | -0.97973 | 9315 ft | 276 kts | 15° |
| 2026-04-25 22:40 | 52.50699 | -0.97154 | 9274 ft | 278 kts | 11° |
| 2026-04-25 22:41 | 52.52610 | -0.97209 | 9251 ft | 275 kts | 344° |
| 2026-04-25 22:41 | 52.54281 | -0.98694 | 9253 ft | 275 kts | 318° |
| 2026-04-25 22:41 | 52.55603 | -1.00978 | 9251 ft | 278 kts | 311° |
| 2026-04-25 22:41 | 52.56863 | -1.03390 | 9240 ft | 278 kts | 311° |
| 2026-04-25 22:42 | 52.58114 | -1.05820 | 9234 ft | 278 kts | 310° |
| 2026-04-25 22:42 | 52.59361 | -1.08253 | 9229 ft | 278 kts | 310° |
| 2026-04-25 22:42 | 52.60584 | -1.10648 | 9215 ft | 269 kts | 310° |
| 2026-04-25 22:42 | 52.61776 | -1.12990 | 9247 ft | 265 kts | 310° |
| 2026-04-25 22:43 | 52.62940 | -1.15280 | 9227 ft | 265 kts | 310° |
| 2026-04-25 22:43 | 52.64140 | -1.17643 | 9232 ft | 271 kts | 310° |
| 2026-04-25 22:43 | 52.65359 | -1.20043 | 9219 ft | 274 kts | 310° |
| 2026-04-25 22:43 | 52.66575 | -1.22442 | 9206 ft | 272 kts | 310° |
| 2026-04-25 22:44 | 52.67785 | -1.24831 | 9184 ft | 273 kts | 310° |
| 2026-04-25 22:44 | 52.69001 | -1.27230 | 8841 ft | 269 kts | 310° |
| 2026-04-25 22:44 | 52.70180 | -1.29560 | 8524 ft | 259 kts | 310° |
| 2026-04-25 22:44 | 52.71310 | -1.31795 | 8207 ft | 249 kts | 310° |
| 2026-04-25 22:45 | 52.72400 | -1.33952 | 7878 ft | 242 kts | 310° |
| 2026-04-25 22:45 | 52.73477 | -1.36079 | 7615 ft | 240 kts | 310° |
| 2026-04-25 22:45 | 52.74387 | -1.38381 | 7256 ft | 241 kts | 288° |
| 2026-04-25 22:45 | 52.74684 | -1.41060 | 6952 ft | 241 kts | 277° |
| 2026-04-25 22:46 | 52.74851 | -1.43833 | 6635 ft | 244 kts | 276° |
| 2026-04-25 22:46 | 52.75008 | -1.46631 | 6293 ft | 245 kts | 275° |
| 2026-04-25 22:46 | 52.75165 | -1.49432 | 5931 ft | 243 kts | 275° |
| 2026-04-25 22:46 | 52.75327 | -1.52194 | 5567 ft | 239 kts | 278° |
| 2026-04-25 22:47 | 52.75935 | -1.54692 | 5175 ft | 235 kts | 309° |
| 2026-04-25 22:47 | 52.77216 | -1.56225 | 4835 ft | 226 kts | 341° |
| 2026-04-25 22:47 | 52.78714 | -1.56789 | 4477 ft | 217 kts | 349° |
| 2026-04-25 22:47 | 52.80190 | -1.57068 | 4101 ft | 212 kts | 6° |
| 2026-04-25 22:48 | 52.81459 | -1.56012 | 3727 ft | 204 kts | 51° |
| 2026-04-25 22:48 | 52.82075 | -1.53994 | 3404 ft | 192 kts | 70° |
| 2026-04-25 22:48 | 52.82547 | -1.51977 | 3079 ft | 183 kts | 77° |
| 2026-04-25 22:48 | 52.82741 | -1.50015 | 2779 ft | 172 kts | 84° |
| 2026-04-25 22:49 | 52.82832 | -1.48047 | 2218 ft | 174 kts | 89° |
| 2026-04-25 22:49 | 52.82869 | -1.46054 | 1745 ft | 170 kts | 89° |
| 2026-04-25 22:49 | 52.82900 | -1.44185 | 1510 ft | 156 kts | 89° |
| 2026-04-25 22:49 | 52.82923 | -1.42490 | 1338 ft | 138 kts | 89° |
| 2026-04-25 22:50 | 52.82953 | -1.40892 | 1044 ft | 139 kts | 87° |
| 2026-04-25 22:50 | 52.82982 | -1.39347 | 832 ft | 131 kts | 87° |
| 2026-04-25 22:50 | 52.83004 | -1.37869 | 666 ft | 131 kts | 87° |
| 2026-04-25 22:50 | 52.83033 | -1.36378 | 528 ft | 129 kts | 86° |
| 2026-04-25 22:51 | 52.83064 | -1.34908 | 352 ft | 126 kts | 87° |
| 2026-04-25 22:51 | 52.83088 | -1.33551 | 308 ft | 104 kts | 89° |
| 2026-04-25 22:51 | 52.83102 | -1.32668 | 300 ft | 52 kts | 89° |
| 2026-04-25 22:51 | 52.83112 | -1.32093 | 306 ft | 47 kts | 87° |
| 2026-04-25 22:52 | 52.83123 | -1.31661 | 308 ft | 27 kts | 88° |
| 2026-04-25 22:52 | 52.83124 | -1.31390 | 305 ft | 13 kts | 98° |
| 2026-04-25 22:52 | 52.83055 | -1.31317 | 303 ft | 13 kts | 179° |
| 2026-04-25 22:52 | 52.83001 | -1.31318 | 300 ft | 13 kts | 188° |
| 2026-04-25 22:53 | 52.82955 | -1.31499 | 300 ft | 15 kts | 269° |
| 2026-04-25 22:53 | 52.82952 | -1.31690 | 300 ft | 18 kts | 266° |
| 2026-04-25 22:53 | 52.82948 | -1.31911 | 302 ft | 20 kts | 269° |
| 2026-04-25 22:53 | 52.82944 | -1.32152 | 300 ft | 19 kts | 268° |
| 2026-04-25 22:54 | 52.82940 | -1.32339 | 300 ft | 16 kts | 268° |
| 2026-04-25 22:54 | 52.82937 | -1.32517 | 300 ft | 15 kts | 268° |
| 2026-04-25 22:54 | 52.82935 | -1.32687 | 300 ft | 14 kts | 268° |
| 2026-04-25 22:54 | 52.82930 | -1.32810 | 303 ft | 7 kts | 254° |
| 2026-04-25 22:55 | 52.82882 | -1.32858 | 300 ft | 9 kts | 179° |
| 2026-04-25 22:55 | 52.82823 | -1.32861 | 300 ft | 5 kts | 196° |
| 2026-04-25 22:55 | 52.82783 | -1.32873 | 301 ft | 6 kts | 181° |
| 2026-04-25 22:55 | 52.82749 | -1.32871 | 302 ft | 3 kts | 178° |
| 2026-04-25 22:56 | 52.82733 | -1.32870 | 302 ft | 1 kts | 178° |
| 2026-04-25 22:56 | 52.82730 | -1.32870 | 302 ft | 0 kts | 178° |